createdAt,value
2016-09-29T00:00:22.959Z,0
2016-09-29T00:01:03.505Z,0
2016-09-29T00:01:44.047Z,0
2016-09-29T00:02:24.592Z,0
2016-09-29T00:03:05.149Z,0
2016-09-29T00:03:45.679Z,0
2016-09-29T00:04:26.225Z,0
2016-09-29T00:05:06.770Z,0
2016-09-29T00:05:47.314Z,0
2016-09-29T00:06:27.849Z,0
2016-09-29T00:07:08.395Z,0
2016-09-29T00:07:48.946Z,0
2016-09-29T00:08:29.487Z,0
2016-09-29T00:09:10.035Z,0
2016-09-29T00:09:50.578Z,0
2016-09-29T00:10:31.122Z,0
2016-09-29T00:11:11.661Z,0
2016-09-29T00:11:52.211Z,0
2016-09-29T00:12:32.749Z,0
2016-09-29T00:13:13.301Z,0
2016-09-29T00:13:53.847Z,0
2016-09-29T00:14:34.382Z,0
2016-09-29T00:15:14.938Z,0
2016-09-29T00:15:55.478Z,0
2016-09-29T00:16:36.026Z,0
2016-09-29T00:17:16.560Z,0
2016-09-29T00:17:57.107Z,0
2016-09-29T00:18:37.654Z,0
2016-09-29T00:19:18.200Z,0
2016-09-29T00:19:58.734Z,0
2016-09-29T00:20:39.276Z,0
2016-09-29T00:21:19.820Z,0
2016-09-29T00:22:00.369Z,0
2016-09-29T00:22:40.912Z,0
2016-09-29T00:23:21.460Z,0
2016-09-29T00:24:02.002Z,0
2016-09-29T00:24:42.553Z,0
2016-09-29T00:25:23.097Z,0
2016-09-29T00:26:03.645Z,0
2016-09-29T00:26:44.191Z,0
2016-09-29T00:27:24.734Z,0
2016-09-29T00:28:05.275Z,0
2016-09-29T00:28:45.821Z,0
2016-09-29T00:29:26.361Z,0
2016-09-29T00:30:06.897Z,0
2016-09-29T00:30:47.443Z,0
2016-09-29T00:31:27.987Z,0
2016-09-29T00:32:08.533Z,0
2016-09-29T00:32:49.072Z,0
2016-09-29T00:33:29.618Z,0
2016-09-29T00:34:10.163Z,0
2016-09-29T00:34:50.702Z,0
2016-09-29T00:35:31.244Z,0
2016-09-29T00:36:11.789Z,0
2016-09-29T00:36:52.332Z,0
2016-09-29T00:37:32.887Z,0
2016-09-29T00:38:13.429Z,0
2016-09-29T00:38:53.973Z,0
2016-09-29T00:39:34.521Z,0
2016-09-29T00:40:15.061Z,0
2016-09-29T00:40:55.615Z,0
2016-09-29T00:41:36.156Z,0
2016-09-29T00:42:16.709Z,0
2016-09-29T00:42:57.257Z,0
2016-09-29T00:43:37.801Z,0
2016-09-29T00:44:18.344Z,0
2016-09-29T00:44:58.890Z,0
2016-09-29T00:45:39.431Z,0
2016-09-29T00:46:19.986Z,0
2016-09-29T00:47:00.516Z,0
2016-09-29T00:47:41.057Z,0
2016-09-29T00:48:21.604Z,0
2016-09-29T00:49:02.153Z,0
2016-09-29T00:49:42.695Z,0
2016-09-29T00:50:23.239Z,0
2016-09-29T00:51:03.782Z,0
2016-09-29T00:51:44.327Z,0
2016-09-29T00:52:24.872Z,0
2016-09-29T00:53:05.413Z,0
2016-09-29T00:53:45.950Z,0
2016-09-29T00:54:26.502Z,0
2016-09-29T00:55:07.041Z,0
2016-09-29T00:55:47.562Z,0
2016-09-29T00:56:28.120Z,0
2016-09-29T00:57:08.653Z,0
2016-09-29T00:57:49.190Z,0
2016-09-29T00:58:29.733Z,0
2016-09-29T00:59:10.272Z,0
2016-09-29T00:59:50.813Z,0
2016-09-29T01:00:31.357Z,0
2016-09-29T01:01:11.908Z,0
2016-09-29T01:01:52.459Z,0
2016-09-29T01:02:33.000Z,0
2016-09-29T01:03:13.540Z,0
2016-09-29T01:03:54.082Z,0
2016-09-29T01:04:34.605Z,0
2016-09-29T01:05:15.134Z,0
2016-09-29T01:05:55.674Z,0
2016-09-29T01:06:36.219Z,0
2016-09-29T01:07:16.764Z,0
2016-09-29T01:07:57.310Z,0
2016-09-29T01:08:37.851Z,0
2016-09-29T01:09:18.394Z,0
2016-09-29T01:09:58.945Z,0
2016-09-29T01:10:39.491Z,0
2016-09-29T01:11:20.032Z,0
2016-09-29T01:12:00.573Z,0
2016-09-29T01:12:41.113Z,0
2016-09-29T01:13:21.649Z,0
2016-09-29T01:14:02.189Z,0
2016-09-29T01:14:42.728Z,0
2016-09-29T01:15:23.265Z,0
2016-09-29T01:16:03.811Z,0
2016-09-29T01:16:44.361Z,0
2016-09-29T01:17:24.894Z,0
2016-09-29T01:18:05.442Z,0
2016-09-29T01:18:45.979Z,0
2016-09-29T01:19:26.502Z,0
2016-09-29T01:20:07.045Z,0
2016-09-29T01:20:47.590Z,0
2016-09-29T01:21:28.133Z,0
2016-09-29T01:22:08.681Z,0
2016-09-29T01:22:49.230Z,0
2016-09-29T01:23:29.769Z,0
2016-09-29T01:24:10.317Z,0
2016-09-29T01:24:50.860Z,0
2016-09-29T01:25:31.411Z,0
2016-09-29T01:26:11.951Z,0
2016-09-29T01:26:52.497Z,0
2016-09-29T01:27:33.030Z,0
2016-09-29T01:28:13.563Z,0
2016-09-29T01:28:54.104Z,0
2016-09-29T01:29:34.649Z,0
2016-09-29T01:30:15.192Z,0
2016-09-29T01:30:55.730Z,0
2016-09-29T01:31:36.288Z,0
2016-09-29T01:32:16.841Z,0
2016-09-29T01:32:57.377Z,0
2016-09-29T01:33:37.924Z,0
2016-09-29T01:34:18.470Z,0
2016-09-29T01:34:59.020Z,0
2016-09-29T01:35:39.559Z,0
2016-09-29T01:36:20.111Z,0
2016-09-29T01:37:00.627Z,0
2016-09-29T01:37:41.172Z,0
2016-09-29T01:38:21.714Z,0
2016-09-29T01:39:02.244Z,0
2016-09-29T01:39:42.797Z,0
2016-09-29T01:40:23.336Z,0
2016-09-29T01:41:03.891Z,0
2016-09-29T01:41:44.430Z,0
2016-09-29T01:42:24.973Z,0
2016-09-29T01:43:05.512Z,0
2016-09-29T01:43:46.056Z,0
2016-09-29T01:44:26.602Z,0
2016-09-29T01:45:07.148Z,0
2016-09-29T01:45:47.694Z,0
2016-09-29T01:46:28.236Z,0
2016-09-29T01:47:08.774Z,0
2016-09-29T01:47:49.327Z,0
2016-09-29T01:48:29.864Z,0
2016-09-29T01:49:10.404Z,0
2016-09-29T01:49:50.941Z,0
2016-09-29T01:50:31.487Z,0
2016-09-29T01:51:12.033Z,0
2016-09-29T01:51:52.575Z,0
2016-09-29T01:52:33.126Z,0
2016-09-29T01:53:13.671Z,0
2016-09-29T01:53:54.209Z,0
2016-09-29T01:54:34.751Z,0
2016-09-29T01:55:15.293Z,0
2016-09-29T01:55:55.830Z,0
2016-09-29T01:56:36.374Z,0
2016-09-29T01:57:16.922Z,0
2016-09-29T01:57:57.465Z,0
2016-09-29T01:58:38.015Z,0
2016-09-29T01:59:18.563Z,0
2016-09-29T01:59:59.113Z,0
2016-09-29T02:00:39.660Z,0
2016-09-29T02:01:20.201Z,0
2016-09-29T02:02:00.732Z,0
2016-09-29T02:02:41.270Z,0
2016-09-29T02:03:21.822Z,0
2016-09-29T02:04:02.366Z,0
2016-09-29T02:04:42.906Z,0
2016-09-29T02:05:23.454Z,0
2016-09-29T02:06:03.983Z,0
2016-09-29T02:06:44.525Z,0
2016-09-29T02:07:25.070Z,0
2016-09-29T02:08:05.608Z,0
2016-09-29T02:08:46.153Z,0
2016-09-29T02:09:26.697Z,0
2016-09-29T02:10:07.238Z,0
2016-09-29T02:10:47.782Z,0
2016-09-29T02:11:28.328Z,0
2016-09-29T02:12:08.869Z,0
2016-09-29T02:12:49.407Z,0
2016-09-29T02:13:29.952Z,0
2016-09-29T02:14:10.497Z,0
2016-09-29T02:14:51.035Z,0
2016-09-29T02:15:31.585Z,0
2016-09-29T02:16:12.142Z,0
2016-09-29T02:16:52.689Z,0
2016-09-29T02:17:33.234Z,0
2016-09-29T02:18:13.776Z,0
2016-09-29T02:18:54.334Z,0
2016-09-29T02:19:34.885Z,0
2016-09-29T02:20:15.437Z,0
2016-09-29T02:20:55.970Z,0
2016-09-29T02:21:36.519Z,0
2016-09-29T02:22:17.052Z,0
2016-09-29T02:22:57.603Z,0
2016-09-29T02:23:38.153Z,0
2016-09-29T02:24:18.695Z,0
2016-09-29T02:24:59.213Z,0
2016-09-29T02:25:39.760Z,0
2016-09-29T02:26:20.300Z,0
2016-09-29T02:27:00.835Z,0
2016-09-29T02:27:41.380Z,0
2016-09-29T02:28:21.923Z,0
2016-09-29T02:29:02.460Z,0
2016-09-29T02:29:43.011Z,0
2016-09-29T02:30:23.542Z,0
2016-09-29T02:31:04.083Z,0
2016-09-29T02:31:44.620Z,0
2016-09-29T02:32:25.168Z,0
2016-09-29T02:33:05.711Z,0
2016-09-29T02:33:46.254Z,0
2016-09-29T02:34:26.794Z,0
2016-09-29T02:35:07.337Z,0
2016-09-29T02:35:47.889Z,0
2016-09-29T02:36:28.421Z,0
2016-09-29T02:37:08.966Z,0
2016-09-29T02:37:49.497Z,0
2016-09-29T02:38:30.040Z,0
2016-09-29T02:39:10.564Z,0
2016-09-29T02:39:51.116Z,0
2016-09-29T02:40:31.663Z,0
2016-09-29T02:41:12.212Z,0
2016-09-29T02:41:52.750Z,0
2016-09-29T02:42:33.313Z,0
2016-09-29T02:43:13.847Z,0
2016-09-29T02:43:54.377Z,0
2016-09-29T02:44:34.928Z,0
2016-09-29T02:45:15.464Z,0
2016-09-29T02:45:56.011Z,0
2016-09-29T02:46:36.554Z,0
2016-09-29T02:47:17.091Z,0
2016-09-29T02:47:57.626Z,0
2016-09-29T02:48:38.167Z,0
2016-09-29T02:49:18.713Z,0
2016-09-29T02:49:59.252Z,0
2016-09-29T02:50:39.800Z,0
2016-09-29T02:51:20.343Z,0
2016-09-29T02:52:00.882Z,0
2016-09-29T02:52:41.430Z,0
2016-09-29T02:53:21.974Z,0
2016-09-29T02:54:02.512Z,0
2016-09-29T02:54:43.060Z,0
2016-09-29T02:55:23.590Z,0
2016-09-29T02:56:04.137Z,0
2016-09-29T02:56:44.685Z,0
2016-09-29T02:57:25.229Z,0
2016-09-29T02:58:05.778Z,0
2016-09-29T02:58:46.325Z,0
2016-09-29T02:59:26.873Z,0
2016-09-29T03:00:07.413Z,0
2016-09-29T03:00:47.944Z,0
2016-09-29T03:01:28.504Z,0
2016-09-29T03:02:09.043Z,0
2016-09-29T03:02:49.573Z,0
2016-09-29T03:03:30.116Z,0
2016-09-29T03:04:10.639Z,0
2016-09-29T03:04:51.182Z,0
2016-09-29T03:05:31.727Z,0
2016-09-29T03:06:12.263Z,0
2016-09-29T03:06:52.811Z,0
2016-09-29T03:07:33.356Z,0
2016-09-29T03:08:13.887Z,0
2016-09-29T03:08:54.426Z,0
2016-09-29T03:09:34.960Z,0
2016-09-29T03:10:15.493Z,0
2016-09-29T03:10:56.041Z,0
2016-09-29T03:11:36.585Z,0
2016-09-29T03:12:17.130Z,0
2016-09-29T03:12:57.679Z,0
2016-09-29T03:13:38.224Z,0
2016-09-29T03:14:18.772Z,0
2016-09-29T03:14:59.318Z,0
2016-09-29T03:15:39.864Z,0
2016-09-29T03:16:20.404Z,0
2016-09-29T03:17:00.955Z,0
2016-09-29T03:17:41.477Z,0
2016-09-29T03:18:22.019Z,0
2016-09-29T03:19:02.561Z,0
2016-09-29T03:19:43.099Z,0
2016-09-29T03:20:23.646Z,0
2016-09-29T03:21:04.184Z,0
2016-09-29T03:21:44.731Z,0
2016-09-29T03:22:25.281Z,0
2016-09-29T03:23:05.827Z,0
2016-09-29T03:23:46.373Z,0
2016-09-29T03:24:26.915Z,0
2016-09-29T03:25:07.460Z,0
2016-09-29T03:25:47.991Z,0
2016-09-29T03:26:28.512Z,0
2016-09-29T03:27:09.055Z,0
2016-09-29T03:27:49.592Z,0
2016-09-29T03:28:30.151Z,0
2016-09-29T03:29:10.688Z,0
2016-09-29T03:29:51.230Z,0
2016-09-29T03:30:31.771Z,0
2016-09-29T03:31:12.316Z,0
2016-09-29T03:31:52.846Z,0
2016-09-29T03:32:33.388Z,0
2016-09-29T03:33:13.933Z,0
2016-09-29T03:33:54.475Z,0
2016-09-29T03:34:35.014Z,0
2016-09-29T03:35:15.550Z,0
2016-09-29T03:35:56.102Z,0
2016-09-29T03:36:36.655Z,0
2016-09-29T03:37:17.198Z,0
2016-09-29T03:37:57.738Z,0
2016-09-29T03:38:38.274Z,0
2016-09-29T03:39:18.809Z,0
2016-09-29T03:39:59.346Z,0
2016-09-29T03:40:39.889Z,0
2016-09-29T03:41:20.423Z,0
2016-09-29T03:42:00.966Z,0
2016-09-29T03:42:41.519Z,0
2016-09-29T03:43:22.067Z,0
2016-09-29T03:44:02.603Z,0
2016-09-29T03:44:43.151Z,0
2016-09-29T03:45:23.697Z,0
2016-09-29T03:46:04.249Z,0
2016-09-29T03:46:44.801Z,0
2016-09-29T03:47:25.335Z,0
2016-09-29T03:48:05.871Z,0
2016-09-29T03:48:46.399Z,0
2016-09-29T03:49:26.940Z,0
2016-09-29T03:50:07.483Z,0
2016-09-29T03:50:48.032Z,0
2016-09-29T03:51:28.579Z,0
2016-09-29T03:52:09.134Z,0
2016-09-29T03:52:49.704Z,0
2016-09-29T03:53:30.229Z,0
2016-09-29T03:54:10.769Z,0
2016-09-29T03:54:51.317Z,0
2016-09-29T03:55:31.864Z,0
2016-09-29T03:56:12.391Z,0
2016-09-29T03:56:52.932Z,0
2016-09-29T03:57:33.471Z,0
2016-09-29T03:58:14.015Z,0
2016-09-29T03:58:54.544Z,0
2016-09-29T03:59:35.093Z,0
2016-09-29T04:00:15.636Z,0
2016-09-29T04:00:56.182Z,0
2016-09-29T04:01:36.721Z,0
2016-09-29T04:02:17.266Z,0
2016-09-29T04:02:57.802Z,0
2016-09-29T04:03:38.343Z,0
2016-09-29T04:04:18.877Z,0
2016-09-29T04:04:59.408Z,0
2016-09-29T04:05:39.948Z,0
2016-09-29T04:06:20.487Z,0
2016-09-29T04:07:01.083Z,0
2016-09-29T04:07:41.622Z,0
2016-09-29T04:08:22.168Z,0
2016-09-29T04:09:02.707Z,0
2016-09-29T04:09:43.238Z,0
2016-09-29T04:10:23.800Z,0
2016-09-29T04:11:04.347Z,0
2016-09-29T04:11:44.900Z,0
2016-09-29T04:12:25.448Z,0
2016-09-29T04:13:06.003Z,0
2016-09-29T04:13:46.545Z,0
2016-09-29T04:14:27.098Z,0
2016-09-29T04:15:07.638Z,0
2016-09-29T04:15:48.183Z,0
2016-09-29T04:16:28.726Z,0
2016-09-29T04:17:09.269Z,0
2016-09-29T04:17:49.820Z,0
2016-09-29T04:18:30.338Z,0
2016-09-29T04:19:10.882Z,0
2016-09-29T04:19:51.426Z,0
2016-09-29T04:20:31.967Z,0
2016-09-29T04:21:12.503Z,0
2016-09-29T04:21:53.044Z,0
2016-09-29T04:22:33.592Z,0
2016-09-29T04:23:14.145Z,0
2016-09-29T04:23:54.685Z,0
2016-09-29T04:24:35.488Z,0
2016-09-29T04:25:16.238Z,0
2016-09-29T04:25:56.957Z,0
2016-09-29T04:26:37.507Z,0
2016-09-29T04:27:18.053Z,0
2016-09-29T04:27:58.596Z,0
2016-09-29T04:28:39.140Z,0
2016-09-29T04:29:19.680Z,0
2016-09-29T04:30:00.220Z,0
2016-09-29T04:30:40.764Z,0
2016-09-29T04:31:21.315Z,0
2016-09-29T04:32:01.850Z,0
2016-09-29T04:32:42.398Z,0
2016-09-29T04:33:22.945Z,0
2016-09-29T04:34:03.490Z,0
2016-09-29T04:34:44.034Z,0
2016-09-29T04:35:24.575Z,0
2016-09-29T04:36:05.122Z,0
2016-09-29T04:36:45.665Z,0
2016-09-29T04:37:26.213Z,0
2016-09-29T04:38:06.801Z,0
2016-09-29T04:38:47.345Z,0
2016-09-29T04:39:27.890Z,0
2016-09-29T04:40:08.443Z,0
2016-09-29T04:40:48.992Z,0
2016-09-29T04:41:29.543Z,0
2016-09-29T04:42:10.093Z,0
2016-09-29T04:42:51.288Z,0
2016-09-29T04:43:31.219Z,0
2016-09-29T04:44:11.765Z,0
2016-09-29T04:44:52.319Z,0
2016-09-29T04:45:32.871Z,0
2016-09-29T04:46:13.417Z,0
2016-09-29T04:46:53.963Z,0
2016-09-29T04:47:34.511Z,0
2016-09-29T04:48:15.061Z,0
2016-09-29T04:48:55.604Z,0
2016-09-29T04:49:36.160Z,0
2016-09-29T04:50:16.708Z,0
2016-09-29T04:50:57.268Z,0
2016-09-29T04:53:13.216Z,0
2016-09-29T04:53:53.754Z,0
2016-09-29T04:54:34.304Z,0
2016-09-29T04:55:14.847Z,0
2016-09-29T04:55:55.376Z,0
2016-09-29T04:56:35.913Z,0
2016-09-29T04:57:16.463Z,0
2016-09-29T04:57:57.003Z,0
2016-09-29T04:58:37.545Z,0
2016-09-29T04:59:18.096Z,0
2016-09-29T04:59:58.642Z,0
2016-09-29T05:00:39.190Z,0
2016-09-29T05:01:19.728Z,0
2016-09-29T05:02:00.266Z,0
2016-09-29T05:02:40.804Z,0
2016-09-29T05:03:21.331Z,0
2016-09-29T05:04:01.865Z,0
2016-09-29T05:04:42.405Z,0
2016-09-29T05:05:22.961Z,0
2016-09-29T05:06:03.507Z,0
2016-09-29T05:06:44.046Z,0
2016-09-29T05:07:24.595Z,0
2016-09-29T05:08:05.154Z,0
2016-09-29T05:08:45.695Z,0
2016-09-29T05:09:26.238Z,0
2016-09-29T05:10:06.775Z,0
2016-09-29T05:10:47.322Z,0
2016-09-29T05:11:27.851Z,0
2016-09-29T05:12:08.391Z,0
2016-09-29T05:12:48.926Z,0
2016-09-29T05:13:29.472Z,0
2016-09-29T05:14:10.002Z,0
2016-09-29T05:14:50.562Z,0
2016-09-29T05:15:31.100Z,0
2016-09-29T05:16:11.641Z,0
2016-09-29T05:16:52.182Z,0
2016-09-29T05:17:32.733Z,0
2016-09-29T05:18:13.266Z,0
2016-09-29T05:18:53.801Z,0
2016-09-29T05:19:34.345Z,0
2016-09-29T05:20:14.888Z,0
2016-09-29T05:20:55.428Z,0
2016-09-29T05:21:35.972Z,0
2016-09-29T05:22:16.518Z,0
2016-09-29T05:22:57.075Z,0
2016-09-29T05:23:37.625Z,5
2016-09-29T05:24:18.223Z,5
2016-09-29T05:24:58.770Z,5
2016-09-29T05:25:39.313Z,5
2016-09-29T05:26:19.856Z,5
2016-09-29T05:27:00.391Z,5
2016-09-29T05:27:40.938Z,5
2016-09-29T05:28:21.479Z,5
2016-09-29T05:29:02.035Z,5
2016-09-29T05:29:42.582Z,5
2016-09-29T05:30:23.136Z,10
2016-09-29T05:31:03.672Z,10
2016-09-29T05:31:44.221Z,10
2016-09-29T05:32:24.747Z,10
2016-09-29T05:33:05.270Z,10
2016-09-29T05:33:45.810Z,10
2016-09-29T05:34:26.353Z,10
2016-09-29T05:35:06.901Z,15
2016-09-29T05:35:47.449Z,15
2016-09-29T05:36:27.994Z,15
2016-09-29T05:37:08.540Z,15
2016-09-29T05:37:49.070Z,15
2016-09-29T05:38:29.604Z,15
2016-09-29T05:39:10.142Z,20
2016-09-29T05:39:50.680Z,20
2016-09-29T05:40:31.234Z,20
2016-09-29T05:41:11.734Z,20
2016-09-29T05:41:52.306Z,20
2016-09-29T05:42:33.182Z,20
2016-09-29T05:43:13.727Z,20
2016-09-29T05:43:54.438Z,25
2016-09-29T05:44:34.791Z,25
2016-09-29T05:45:15.337Z,25
2016-09-29T05:45:55.896Z,25
2016-09-29T05:46:36.447Z,25
2016-09-29T05:47:16.990Z,25
2016-09-29T05:47:57.540Z,30
2016-09-29T05:48:38.085Z,30
2016-09-29T05:49:18.623Z,30
2016-09-29T05:49:59.177Z,30
2016-09-29T05:50:39.717Z,30
2016-09-29T05:51:20.266Z,30
2016-09-29T05:52:00.812Z,35
2016-09-29T05:52:41.341Z,35
2016-09-29T05:53:21.872Z,35
2016-09-29T05:54:02.417Z,35
2016-09-29T05:54:42.945Z,35
2016-09-29T05:55:23.490Z,35
2016-09-29T05:56:04.032Z,35
2016-09-29T05:56:44.586Z,40
2016-09-29T05:57:25.124Z,40
2016-09-29T05:58:05.672Z,40
2016-09-29T05:58:46.209Z,40
2016-09-29T05:59:26.750Z,40
2016-09-29T06:00:07.292Z,45
2016-09-29T06:00:47.834Z,45
2016-09-29T06:01:28.374Z,45
2016-09-29T06:02:08.917Z,45
2016-09-29T06:02:49.467Z,45
2016-09-29T06:03:30.017Z,50
2016-09-29T06:04:10.558Z,50
2016-09-29T06:04:51.114Z,50
2016-09-29T06:05:31.675Z,55
2016-09-29T06:06:12.221Z,55
2016-09-29T06:06:52.761Z,60
2016-09-29T06:07:33.307Z,60
2016-09-29T06:08:13.857Z,60
2016-09-29T06:08:54.402Z,60
2016-09-29T06:09:34.953Z,60
2016-09-29T06:10:15.506Z,65
2016-09-29T06:10:56.045Z,65
2016-09-29T06:11:36.588Z,65
2016-09-29T06:12:17.132Z,65
2016-09-29T06:12:57.659Z,65
2016-09-29T06:13:38.206Z,65
2016-09-29T06:14:18.750Z,70
2016-09-29T06:14:59.284Z,70
2016-09-29T06:15:39.832Z,75
2016-09-29T06:16:20.382Z,75
2016-09-29T06:17:00.931Z,75
2016-09-29T06:17:41.485Z,75
2016-09-29T06:18:22.034Z,80
2016-09-29T06:19:02.580Z,80
2016-09-29T06:19:43.133Z,80
2016-09-29T06:20:23.673Z,80
2016-09-29T06:21:04.223Z,80
2016-09-29T06:21:44.767Z,85
2016-09-29T06:22:25.314Z,85
2016-09-29T06:23:05.851Z,85
2016-09-29T06:23:46.401Z,85
2016-09-29T06:24:26.929Z,85
2016-09-29T06:25:07.447Z,90
2016-09-29T06:25:47.995Z,90
2016-09-29T06:26:28.549Z,90
2016-09-29T06:27:09.083Z,90
2016-09-29T06:27:49.644Z,95
2016-09-29T06:28:30.193Z,95
2016-09-29T06:29:10.737Z,95
2016-09-29T06:29:51.296Z,95
2016-09-29T06:30:31.847Z,100
2016-09-29T06:31:12.400Z,100
2016-09-29T06:31:52.948Z,100
2016-09-29T06:32:33.501Z,100
2016-09-29T06:33:14.040Z,100
2016-09-29T06:33:54.584Z,105
2016-09-29T06:34:35.134Z,105
2016-09-29T06:35:15.676Z,105
2016-09-29T06:35:56.215Z,105
2016-09-29T06:36:36.778Z,105
2016-09-29T06:37:17.326Z,110
2016-09-29T06:37:57.881Z,110
2016-09-29T06:38:38.396Z,110
2016-09-29T06:39:18.968Z,110
2016-09-29T06:39:59.511Z,110
2016-09-29T06:40:40.042Z,110
2016-09-29T06:41:20.579Z,115
2016-09-29T06:42:01.119Z,115
2016-09-29T06:42:41.666Z,115
2016-09-29T06:43:22.214Z,115
2016-09-29T06:44:02.762Z,115
2016-09-29T06:44:43.320Z,120
2016-09-29T06:45:23.861Z,120
2016-09-29T06:46:04.444Z,120
2016-09-29T06:46:44.991Z,120
2016-09-29T06:47:25.532Z,120
2016-09-29T06:48:06.068Z,125
2016-09-29T06:48:46.605Z,125
2016-09-29T06:49:27.167Z,125
2016-09-29T06:50:07.705Z,125
2016-09-29T06:50:48.253Z,125
2016-09-29T06:51:28.800Z,125
2016-09-29T06:52:09.334Z,130
2016-09-29T06:52:49.882Z,130
2016-09-29T06:53:30.414Z,130
2016-09-29T06:54:10.951Z,130
2016-09-29T06:54:51.490Z,135
2016-09-29T06:55:32.033Z,135
2016-09-29T06:56:12.580Z,135
2016-09-29T06:56:53.127Z,135
2016-09-29T06:57:33.682Z,135
2016-09-29T06:58:14.228Z,135
2016-09-29T06:58:54.767Z,135
2016-09-29T06:59:35.313Z,135
2016-09-29T07:00:15.856Z,135
2016-09-29T07:00:56.405Z,140
2016-09-29T07:01:36.956Z,140
2016-09-29T07:02:17.505Z,140
2016-09-29T07:02:58.042Z,140
2016-09-29T07:03:38.585Z,140
2016-09-29T07:04:19.124Z,140
2016-09-29T07:04:59.667Z,140
2016-09-29T07:05:40.204Z,145
2016-09-29T07:06:20.750Z,145
2016-09-29T07:07:01.300Z,145
2016-09-29T07:07:41.838Z,145
2016-09-29T07:08:22.392Z,145
2016-09-29T07:09:02.927Z,145
2016-09-29T07:09:43.473Z,150
2016-09-29T07:10:24.010Z,150
2016-09-29T07:11:04.566Z,150
2016-09-29T07:11:45.112Z,150
2016-09-29T07:12:25.654Z,150
2016-09-29T07:13:06.208Z,150
2016-09-29T07:13:46.746Z,150
2016-09-29T07:14:27.284Z,155
2016-09-29T07:15:07.828Z,155
2016-09-29T07:15:48.370Z,155
2016-09-29T07:16:28.913Z,155
2016-09-29T07:17:09.451Z,155
2016-09-29T07:17:49.998Z,155
2016-09-29T07:18:30.548Z,160
2016-09-29T07:19:11.088Z,160
2016-09-29T07:19:51.651Z,160
2016-09-29T07:20:32.189Z,160
2016-09-29T07:21:12.737Z,165
2016-09-29T07:21:53.311Z,165
2016-09-29T07:22:33.858Z,165
2016-09-29T07:23:14.398Z,165
2016-09-29T07:23:54.954Z,165
2016-09-29T07:24:35.503Z,170
2016-09-29T07:25:16.053Z,170
2016-09-29T07:25:56.603Z,170
2016-09-29T07:26:37.157Z,170
2016-09-29T07:27:17.706Z,175
2016-09-29T07:27:58.255Z,175
2016-09-29T07:28:38.802Z,175
2016-09-29T07:29:19.346Z,175
2016-09-29T07:29:59.917Z,180
2016-09-29T07:30:40.469Z,180
2016-09-29T07:31:21.016Z,180
2016-09-29T07:32:01.572Z,180
2016-09-29T07:32:42.116Z,180
2016-09-29T07:33:22.671Z,180
2016-09-29T07:34:03.216Z,180
2016-09-29T07:34:43.757Z,180
2016-09-29T07:35:24.313Z,180
2016-09-29T07:36:04.868Z,185
2016-09-29T07:36:45.413Z,185
2016-09-29T07:37:25.979Z,185
2016-09-29T07:38:06.523Z,185
2016-09-29T07:38:47.074Z,185
2016-09-29T07:39:27.618Z,190
2016-09-29T07:40:08.173Z,190
2016-09-29T07:40:48.716Z,190
2016-09-29T07:41:29.263Z,190
2016-09-29T07:42:09.807Z,190
2016-09-29T07:42:50.366Z,190
2016-09-29T07:43:30.899Z,190
2016-09-29T07:44:11.444Z,190
2016-09-29T07:44:51.968Z,195
2016-09-29T07:45:32.512Z,195
2016-09-29T07:46:13.057Z,195
2016-09-29T07:46:53.601Z,195
2016-09-29T07:47:34.149Z,195
2016-09-29T07:48:14.692Z,195
2016-09-29T07:48:55.245Z,200
2016-09-29T07:49:35.789Z,200
2016-09-29T07:50:16.337Z,200
2016-09-29T07:50:56.876Z,200
2016-09-29T07:51:37.435Z,200
2016-09-29T07:52:17.986Z,205
2016-09-29T07:52:58.525Z,205
2016-09-29T07:53:39.075Z,205
2016-09-29T07:54:19.623Z,205
2016-09-29T07:55:00.173Z,210
2016-09-29T07:55:40.706Z,210
2016-09-29T07:56:21.268Z,210
2016-09-29T07:57:01.817Z,210
2016-09-29T07:57:42.362Z,210
2016-09-29T07:58:22.923Z,210
2016-09-29T07:59:03.471Z,210
2016-09-29T07:59:44.027Z,210
2016-09-29T08:00:24.575Z,215
2016-09-29T08:01:05.127Z,215
2016-09-29T08:01:45.669Z,215
2016-09-29T08:02:26.226Z,215
2016-09-29T08:03:06.766Z,220
2016-09-29T08:03:47.320Z,215
2016-09-29T08:04:27.884Z,220
2016-09-29T08:05:08.400Z,220
2016-09-29T08:05:48.945Z,220
2016-09-29T08:06:29.495Z,220
2016-09-29T08:07:10.042Z,225
2016-09-29T08:07:50.588Z,225
2016-09-29T08:08:31.137Z,225
2016-09-29T08:09:11.685Z,225
2016-09-29T08:09:52.220Z,225
2016-09-29T08:10:32.769Z,225
2016-09-29T08:11:13.310Z,225
2016-09-29T08:11:53.861Z,225
2016-09-29T08:12:34.414Z,225
2016-09-29T08:13:14.962Z,225
2016-09-29T08:13:55.509Z,225
2016-09-29T08:14:36.074Z,230
2016-09-29T08:15:16.633Z,230
2016-09-29T08:15:57.171Z,235
2016-09-29T08:16:37.719Z,235
2016-09-29T08:17:18.278Z,240
2016-09-29T08:17:58.826Z,240
2016-09-29T08:18:39.374Z,240
2016-09-29T08:19:19.922Z,240
2016-09-29T08:20:00.477Z,245
2016-09-29T08:20:41.023Z,245
2016-09-29T08:21:21.581Z,240
2016-09-29T08:22:02.127Z,245
2016-09-29T08:22:42.679Z,245
2016-09-29T08:23:23.229Z,340
2016-09-29T08:24:03.769Z,280
2016-09-29T08:24:44.319Z,480
2016-09-29T08:25:24.892Z,265
2016-09-29T08:26:05.419Z,430
2016-09-29T08:26:45.964Z,270
2016-09-29T08:27:26.517Z,265
2016-09-29T08:28:07.060Z,255
2016-09-29T08:28:47.602Z,260
2016-09-29T08:29:28.148Z,265
2016-09-29T08:30:08.722Z,265
2016-09-29T08:30:49.249Z,265
2016-09-29T08:31:29.799Z,260
2016-09-29T08:32:10.347Z,260
2016-09-29T08:32:50.892Z,265
2016-09-29T08:33:31.436Z,265
2016-09-29T08:34:11.974Z,265
2016-09-29T08:34:52.521Z,265
2016-09-29T08:35:33.071Z,270
2016-09-29T08:36:13.612Z,275
2016-09-29T08:36:54.167Z,290
2016-09-29T08:37:34.714Z,400
2016-09-29T08:38:15.243Z,650
2016-09-29T08:38:55.803Z,875
2016-09-29T08:39:36.343Z,920
2016-09-29T08:40:16.897Z,740
2016-09-29T08:40:57.443Z,510
2016-09-29T08:41:38.001Z,330
2016-09-29T08:42:18.540Z,530
2016-09-29T08:42:59.096Z,740
2016-09-29T08:43:39.639Z,840
2016-09-29T08:44:20.185Z,725
2016-09-29T08:45:00.752Z,530
2016-09-29T08:45:41.298Z,420
2016-09-29T08:46:21.854Z,385
2016-09-29T08:47:02.407Z,400
2016-09-29T08:47:42.960Z,440
2016-09-29T08:48:23.505Z,755
2016-09-29T08:49:04.066Z,1125
2016-09-29T08:49:44.605Z,1250
2016-09-29T08:50:25.161Z,1210
2016-09-29T08:51:05.714Z,1190
2016-09-29T08:51:46.265Z,1015
2016-09-29T08:52:26.818Z,815
2016-09-29T08:53:07.369Z,580
2016-09-29T08:53:47.922Z,510
2016-09-29T08:54:28.474Z,660
2016-09-29T08:55:09.019Z,1255
2016-09-29T08:55:49.583Z,1790
2016-09-29T08:56:30.135Z,2135
2016-09-29T08:57:10.685Z,2210
2016-09-29T08:57:51.236Z,2210
2016-09-29T08:58:31.788Z,2230
2016-09-29T08:59:12.335Z,2255
2016-09-29T08:59:52.894Z,2285
2016-09-29T09:00:33.441Z,2275
2016-09-29T09:01:13.995Z,2250
2016-09-29T09:01:54.545Z,2220
2016-09-29T09:02:35.097Z,2195
2016-09-29T09:03:15.647Z,2215
2016-09-29T09:03:56.193Z,2185
2016-09-29T09:04:36.750Z,2180
2016-09-29T09:05:17.299Z,2265
2016-09-29T09:05:57.850Z,2225
2016-09-29T09:06:38.401Z,2200
2016-09-29T09:07:18.959Z,2165
2016-09-29T09:07:59.512Z,2190
2016-09-29T09:08:40.059Z,2195
2016-09-29T09:09:20.613Z,2345
2016-09-29T09:10:01.166Z,2405
2016-09-29T09:10:41.711Z,2455
2016-09-29T09:11:22.257Z,2520
2016-09-29T09:12:02.809Z,2540
2016-09-29T09:12:43.359Z,2510
2016-09-29T09:13:23.914Z,2530
2016-09-29T09:14:04.465Z,2440
2016-09-29T09:14:45.017Z,2340
2016-09-29T09:15:25.569Z,2280
2016-09-29T09:16:06.123Z,2290
2016-09-29T09:16:46.675Z,2235
2016-09-29T09:17:27.221Z,2275
2016-09-29T09:18:07.778Z,2225
2016-09-29T09:18:48.327Z,2205
2016-09-29T09:19:28.878Z,2180
2016-09-29T09:20:09.431Z,2190
2016-09-29T09:20:49.981Z,2230
2016-09-29T09:21:30.518Z,2300
2016-09-29T09:22:11.075Z,2360
2016-09-29T09:22:51.626Z,2395
2016-09-29T09:23:32.175Z,2375
2016-09-29T09:24:12.728Z,2380
2016-09-29T09:24:53.279Z,2385
2016-09-29T09:25:33.829Z,2425
2016-09-29T09:26:14.377Z,2585
2016-09-29T09:26:54.931Z,2535
2016-09-29T09:27:35.484Z,2550
2016-09-29T09:28:16.041Z,2480
2016-09-29T09:28:56.591Z,2460
2016-09-29T09:29:37.140Z,2430
2016-09-29T09:30:17.694Z,2495
2016-09-29T09:30:58.246Z,2490
2016-09-29T09:31:38.799Z,2480
2016-09-29T09:32:19.355Z,1720
2016-09-29T09:32:59.899Z,2400
2016-09-29T09:33:40.450Z,2430
2016-09-29T09:34:21.007Z,1975
2016-09-29T09:35:01.552Z,2410
2016-09-29T09:35:42.110Z,2415
2016-09-29T09:36:22.658Z,2505
2016-09-29T09:37:03.214Z,2620
2016-09-29T09:37:43.761Z,2605
2016-09-29T09:38:24.311Z,2695
2016-09-29T09:39:04.863Z,2745
2016-09-29T09:39:45.414Z,2745
2016-09-29T09:40:25.968Z,2720
2016-09-29T09:41:06.513Z,2705
2016-09-29T09:41:47.066Z,2710
2016-09-29T09:42:27.601Z,2705